createdAt,value
2016-11-17T00:01:02.071Z,0
2016-11-17T00:02:10.676Z,0
2016-11-17T00:03:19.954Z,0
2016-11-17T00:04:28.882Z,0
2016-11-17T00:05:37.811Z,0
2016-11-17T00:06:46.745Z,0
2016-11-17T00:07:56.015Z,0
2016-11-17T00:09:05.093Z,0
2016-11-17T00:10:14.021Z,0
2016-11-17T00:11:22.949Z,0
2016-11-17T00:12:31.878Z,0
2016-11-17T00:13:40.809Z,0
2016-11-17T00:14:49.469Z,0
2016-11-17T00:15:58.717Z,0
2016-11-17T00:17:07.321Z,0
2016-11-17T00:18:16.247Z,0
2016-11-17T00:19:24.857Z,0
2016-11-17T00:20:33.812Z,0
2016-11-17T00:21:43.090Z,0
2016-11-17T00:22:52.655Z,0
2016-11-17T00:24:01.581Z,0
2016-11-17T00:25:10.832Z,0
2016-11-17T00:26:19.909Z,0
2016-11-17T00:27:28.518Z,0
2016-11-17T00:28:37.768Z,0
2016-11-17T00:29:46.373Z,0
2016-11-17T00:30:55.650Z,0
2016-11-17T00:32:05.283Z,0
2016-11-17T00:33:14.532Z,0
2016-11-17T00:34:23.136Z,0
2016-11-17T00:35:32.071Z,0
2016-11-17T00:36:40.681Z,0
2016-11-17T00:37:49.741Z,0
2016-11-17T00:38:58.345Z,0
2016-11-17T00:40:07.597Z,0
2016-11-17T00:41:16.525Z,0
2016-11-17T00:42:25.488Z,0
2016-11-17T00:43:34.444Z,0
2016-11-17T00:44:43.375Z,0
2016-11-17T00:45:52.007Z,0
2016-11-17T00:47:00.611Z,0
2016-11-17T00:48:09.216Z,0
2016-11-17T00:49:17.905Z,0
2016-11-17T00:50:26.540Z,0
2016-11-17T00:51:35.147Z,0
2016-11-17T00:52:43.752Z,0
2016-11-17T00:53:53.329Z,0
2016-11-17T00:55:03.320Z,0
2016-11-17T00:56:12.249Z,0
2016-11-17T00:57:20.855Z,0
2016-11-17T00:58:29.779Z,0
2016-11-17T00:59:39.348Z,0
2016-11-17T01:00:48.103Z,0
2016-11-17T01:01:57.030Z,0
2016-11-17T01:03:06.315Z,0
2016-11-17T01:04:14.933Z,0
2016-11-17T01:05:23.544Z,0
2016-11-17T01:06:32.452Z,0
2016-11-17T01:07:41.708Z,0
2016-11-17T01:08:50.635Z,0
2016-11-17T01:09:59.564Z,0
2016-11-17T01:11:08.812Z,0
2016-11-17T01:12:18.733Z,0
2016-11-17T01:13:27.339Z,0
2016-11-17T01:14:36.586Z,0
2016-11-17T01:15:45.512Z,0
2016-11-17T01:16:54.434Z,0
2016-11-17T01:18:04.033Z,0
2016-11-17T01:19:13.286Z,0
2016-11-17T01:20:22.211Z,0
2016-11-17T01:21:31.137Z,0
2016-11-17T01:22:39.792Z,0
2016-11-17T01:23:49.075Z,0
2016-11-17T01:24:58.003Z,0
2016-11-17T01:26:06.607Z,0
2016-11-17T01:27:15.212Z,0
2016-11-17T01:28:24.145Z,0
2016-11-17T01:29:33.528Z,0
2016-11-17T01:30:42.779Z,0
2016-11-17T01:31:51.383Z,0
2016-11-17T01:33:00.311Z,0
2016-11-17T01:34:09.881Z,0
2016-11-17T01:35:18.856Z,0
2016-11-17T01:36:27.780Z,0
2016-11-17T01:37:36.738Z,0
2016-11-17T01:38:45.660Z,0
2016-11-17T01:39:54.616Z,0
2016-11-17T01:41:03.571Z,0
2016-11-17T01:42:12.819Z,0
2016-11-17T01:43:21.745Z,0
2016-11-17T01:44:30.993Z,0
2016-11-17T01:45:39.599Z,0
2016-11-17T01:46:48.970Z,0
2016-11-17T01:47:58.221Z,0
2016-11-17T01:49:07.211Z,0
2016-11-17T01:50:16.141Z,0
2016-11-17T01:51:24.745Z,0
2016-11-17T01:52:34.342Z,0
2016-11-17T01:53:43.267Z,0
2016-11-17T01:54:52.200Z,0
2016-11-17T01:56:00.812Z,0
2016-11-17T01:57:10.058Z,0
2016-11-17T01:58:18.717Z,0
2016-11-17T01:59:27.643Z,0
2016-11-17T02:00:36.250Z,0
2016-11-17T02:01:44.855Z,0
2016-11-17T02:02:53.463Z,0
2016-11-17T02:04:02.441Z,0
2016-11-17T02:05:12.016Z,0
2016-11-17T02:06:20.945Z,0
2016-11-17T02:07:30.523Z,0
2016-11-17T02:08:39.460Z,0
2016-11-17T02:09:48.465Z,0
2016-11-17T02:10:57.393Z,0
2016-11-17T02:12:06.319Z,0
2016-11-17T02:13:15.257Z,0
2016-11-17T02:14:23.860Z,0
2016-11-17T02:15:33.509Z,0
2016-11-17T02:16:42.438Z,0
2016-11-17T02:17:51.364Z,0
2016-11-17T02:19:00.295Z,0
2016-11-17T02:20:09.253Z,0
2016-11-17T02:21:18.207Z,0
2016-11-17T02:22:27.138Z,0
2016-11-17T02:23:36.706Z,0
2016-11-17T02:24:48.986Z,0
2016-11-17T02:25:57.913Z,0
2016-11-17T02:27:07.191Z,0
2016-11-17T02:28:15.795Z,0
2016-11-17T02:29:25.365Z,0
2016-11-17T02:30:33.974Z,0
2016-11-17T02:31:43.223Z,0
2016-11-17T02:32:52.200Z,0
2016-11-17T02:34:01.125Z,0
2016-11-17T02:35:09.726Z,0
2016-11-17T02:36:18.330Z,0
2016-11-17T02:37:26.942Z,0
2016-11-17T02:38:36.863Z,0
2016-11-17T02:39:45.462Z,0
2016-11-17T02:40:54.070Z,0
2016-11-17T02:42:02.672Z,0
2016-11-17T02:43:11.920Z,0
2016-11-17T02:44:21.216Z,0
2016-11-17T02:45:30.149Z,0
2016-11-17T02:46:38.754Z,0
2016-11-17T02:47:47.677Z,0
2016-11-17T02:48:57.246Z,0
2016-11-17T02:50:07.166Z,0
2016-11-17T02:51:16.125Z,0
2016-11-17T02:52:25.051Z,0
2016-11-17T02:53:34.296Z,0
2016-11-17T02:54:43.221Z,0
2016-11-17T02:55:52.452Z,0
2016-11-17T02:57:01.702Z,0
2016-11-17T02:58:10.334Z,0
2016-11-17T02:59:18.943Z,0
2016-11-17T03:00:28.213Z,0
2016-11-17T03:01:37.246Z,0
2016-11-17T03:02:45.842Z,0
2016-11-17T03:03:54.771Z,0
2016-11-17T03:05:04.351Z,0
2016-11-17T03:06:13.603Z,0
2016-11-17T03:07:22.559Z,0
2016-11-17T03:08:31.489Z,0
2016-11-17T03:09:40.120Z,0
2016-11-17T03:10:49.070Z,0
2016-11-17T03:11:58.003Z,0
2016-11-17T03:13:07.294Z,0
2016-11-17T03:14:16.223Z,0
2016-11-17T03:15:24.838Z,0
2016-11-17T03:16:34.095Z,0
2016-11-17T03:17:43.018Z,0
2016-11-17T03:18:51.991Z,0
2016-11-17T03:20:00.941Z,0
2016-11-17T03:21:09.871Z,0
2016-11-17T03:22:18.475Z,0
2016-11-17T03:23:27.422Z,0
2016-11-17T03:24:36.405Z,0
2016-11-17T03:25:45.340Z,0
2016-11-17T03:26:53.958Z,0
2016-11-17T03:28:03.551Z,0
2016-11-17T03:29:12.166Z,0
2016-11-17T03:30:21.626Z,0
2016-11-17T03:31:30.563Z,0
2016-11-17T03:32:39.840Z,0
2016-11-17T03:33:48.466Z,0
2016-11-17T03:34:57.405Z,0
2016-11-17T03:36:06.412Z,0
2016-11-17T03:37:15.676Z,0
2016-11-17T03:38:24.618Z,0
2016-11-17T03:39:33.870Z,0
2016-11-17T03:40:43.128Z,0
2016-11-17T03:41:52.153Z,0
2016-11-17T03:43:00.786Z,0
2016-11-17T03:44:09.412Z,0
2016-11-17T03:45:18.349Z,0
2016-11-17T03:46:26.966Z,0
2016-11-17T03:47:36.029Z,0
2016-11-17T03:48:44.971Z,0
2016-11-17T03:49:53.572Z,0
2016-11-17T03:51:02.827Z,0
2016-11-17T03:52:11.759Z,0
2016-11-17T03:53:20.426Z,0
2016-11-17T03:54:30.014Z,0
2016-11-17T03:55:38.627Z,0
2016-11-17T03:56:47.575Z,0
2016-11-17T03:57:56.829Z,0
2016-11-17T03:59:05.490Z,0
2016-11-17T04:00:14.432Z,0
2016-11-17T04:01:23.373Z,0
2016-11-17T04:02:32.636Z,0
2016-11-17T04:03:41.904Z,0
2016-11-17T04:04:51.309Z,0
2016-11-17T04:06:00.580Z,0
2016-11-17T04:07:09.196Z,0
2016-11-17T04:08:18.169Z,0
2016-11-17T04:09:26.790Z,0
2016-11-17T04:10:36.143Z,0
2016-11-17T04:11:45.084Z,0
2016-11-17T04:12:54.343Z,0
2016-11-17T04:14:03.288Z,0
2016-11-17T04:15:12.540Z,0
2016-11-17T04:16:21.201Z,0
2016-11-17T04:17:30.467Z,0
2016-11-17T04:18:39.100Z,0
2016-11-17T04:19:48.362Z,0
2016-11-17T04:20:57.306Z,0
2016-11-17T04:22:06.272Z,0
2016-11-17T04:23:15.211Z,0
2016-11-17T04:24:23.829Z,0
2016-11-17T04:25:32.770Z,0
2016-11-17T04:26:42.024Z,0
2016-11-17T04:27:51.006Z,0
2016-11-17T04:28:59.983Z,0
2016-11-17T04:30:08.597Z,0
2016-11-17T04:31:17.531Z,0
2016-11-17T04:32:26.140Z,0
2016-11-17T04:33:36.173Z,0
2016-11-17T04:34:45.450Z,0
2016-11-17T04:35:54.718Z,0
2016-11-17T04:37:03.659Z,0
2016-11-17T04:38:12.606Z,0
2016-11-17T04:39:21.279Z,0
2016-11-17T04:40:30.209Z,0
2016-11-17T04:41:39.141Z,0
2016-11-17T04:42:48.405Z,0
2016-11-17T04:43:57.019Z,0
2016-11-17T04:45:05.696Z,0
2016-11-17T04:46:14.965Z,0
2016-11-17T04:47:23.899Z,0
2016-11-17T04:48:32.513Z,0
2016-11-17T04:49:41.456Z,0
2016-11-17T04:50:50.497Z,0
2016-11-17T04:51:59.485Z,0
2016-11-17T04:53:08.422Z,0
2016-11-17T04:54:17.045Z,0
2016-11-17T04:55:25.982Z,0
2016-11-17T04:56:35.266Z,0
2016-11-17T04:57:44.231Z,0
2016-11-17T04:58:53.170Z,0
2016-11-17T05:00:02.105Z,0
2016-11-17T05:01:10.726Z,0
2016-11-17T05:02:19.391Z,0
2016-11-17T05:03:28.324Z,0
2016-11-17T05:04:36.947Z,0
2016-11-17T05:05:45.880Z,0
2016-11-17T05:06:54.503Z,0
2016-11-17T05:08:04.155Z,0
2016-11-17T05:09:13.740Z,0
2016-11-17T05:10:22.377Z,0
2016-11-17T05:11:31.322Z,0
2016-11-17T05:12:39.947Z,0
2016-11-17T05:13:49.236Z,0
2016-11-17T05:14:58.175Z,0
2016-11-17T05:16:07.097Z,0
2016-11-17T05:17:16.356Z,0
2016-11-17T05:18:25.287Z,0
2016-11-17T05:19:34.687Z,0
2016-11-17T05:20:43.624Z,0
2016-11-17T05:21:52.572Z,0
2016-11-17T05:23:01.830Z,0
2016-11-17T05:24:10.446Z,0
2016-11-17T05:25:19.516Z,0
2016-11-17T05:26:28.471Z,0
2016-11-17T05:27:37.086Z,0
2016-11-17T05:28:46.348Z,0
2016-11-17T05:29:54.966Z,0
2016-11-17T05:31:04.065Z,0
2016-11-17T05:32:12.670Z,0
2016-11-17T05:33:21.617Z,0
2016-11-17T05:34:30.891Z,0
2016-11-17T05:35:39.523Z,0
2016-11-17T05:36:49.240Z,0
2016-11-17T05:37:58.515Z,0
2016-11-17T05:39:07.440Z,0
2016-11-17T05:40:16.688Z,0
2016-11-17T05:41:25.951Z,0
2016-11-17T05:42:35.249Z,0
2016-11-17T05:43:43.863Z,0
2016-11-17T05:44:52.800Z,0
2016-11-17T05:46:02.067Z,0
2016-11-17T05:47:11.000Z,0
2016-11-17T05:48:20.086Z,0
2016-11-17T05:49:29.024Z,0
2016-11-17T05:50:38.290Z,0
2016-11-17T05:51:47.555Z,0
2016-11-17T05:52:56.481Z,0
2016-11-17T05:54:05.772Z,0
2016-11-17T05:55:14.701Z,0
2016-11-17T05:56:23.990Z,0
2016-11-17T05:57:33.245Z,0
2016-11-17T05:58:41.861Z,0
2016-11-17T05:59:50.983Z,0
2016-11-17T06:00:59.935Z,0
2016-11-17T06:02:09.109Z,0
2016-11-17T06:03:18.041Z,0
2016-11-17T06:04:27.626Z,0
2016-11-17T06:05:36.295Z,0
2016-11-17T06:06:45.254Z,0
2016-11-17T06:07:54.522Z,0
2016-11-17T06:09:03.140Z,0
2016-11-17T06:10:13.056Z,0
2016-11-17T06:11:22.994Z,0
2016-11-17T06:12:31.600Z,0
2016-11-17T06:13:40.532Z,0
2016-11-17T06:14:49.459Z,0
2016-11-17T06:15:58.393Z,0
2016-11-17T06:17:07.403Z,0
2016-11-17T06:18:16.346Z,0
2016-11-17T06:19:25.339Z,0
2016-11-17T06:20:34.286Z,0
2016-11-17T06:21:42.901Z,0
2016-11-17T06:22:51.571Z,0
2016-11-17T06:24:00.189Z,0
2016-11-17T06:25:09.126Z,0
2016-11-17T06:26:18.391Z,0
2016-11-17T06:27:27.001Z,0
2016-11-17T06:28:36.350Z,0
2016-11-17T06:29:45.292Z,0
2016-11-17T06:30:53.905Z,0
2016-11-17T06:32:02.849Z,0
2016-11-17T06:33:11.461Z,0
2016-11-17T06:34:20.450Z,0
2016-11-17T06:35:29.725Z,0
2016-11-17T06:36:38.990Z,0
2016-11-17T06:37:47.645Z,0
2016-11-17T06:38:56.583Z,0
2016-11-17T06:40:05.895Z,0
2016-11-17T06:41:14.840Z,0
2016-11-17T06:42:23.447Z,0
2016-11-17T06:43:32.064Z,0
2016-11-17T06:44:41.011Z,5
2016-11-17T06:45:50.374Z,5
2016-11-17T06:46:59.296Z,5
2016-11-17T06:48:08.572Z,5
2016-11-17T06:49:17.525Z,5
2016-11-17T06:50:26.155Z,5
2016-11-17T06:51:35.505Z,10
2016-11-17T06:52:44.783Z,10
2016-11-17T06:53:53.724Z,10
2016-11-17T06:55:02.981Z,10
2016-11-17T06:56:12.239Z,15
2016-11-17T06:57:21.649Z,15
2016-11-17T06:58:30.272Z,15
2016-11-17T06:59:39.245Z,15
2016-11-17T07:00:48.515Z,20
2016-11-17T07:01:57.129Z,20
2016-11-17T07:03:05.796Z,20
2016-11-17T07:04:15.069Z,25
2016-11-17T07:05:24.341Z,25
2016-11-17T07:06:33.280Z,25
2016-11-17T07:07:42.215Z,30
2016-11-17T07:08:51.188Z,30
2016-11-17T07:10:00.457Z,35
2016-11-17T07:11:10.051Z,35
2016-11-17T07:12:18.658Z,40
2016-11-17T07:13:27.290Z,40
2016-11-17T07:14:36.296Z,40
2016-11-17T07:15:45.231Z,45
2016-11-17T07:16:53.843Z,45
2016-11-17T07:18:03.097Z,50
2016-11-17T07:19:12.032Z,50
2016-11-17T07:20:20.754Z,55
2016-11-17T07:21:29.701Z,60
2016-11-17T07:22:38.312Z,60
2016-11-17T07:23:47.253Z,65
2016-11-17T07:24:56.197Z,65
2016-11-17T07:26:06.144Z,70
2016-11-17T07:27:15.093Z,75
2016-11-17T07:28:24.363Z,75
2016-11-17T07:29:33.620Z,80
2016-11-17T07:30:42.878Z,85
2016-11-17T07:31:51.536Z,85
2016-11-17T07:33:00.147Z,85
2016-11-17T07:34:09.079Z,90
2016-11-17T07:35:18.015Z,90
2016-11-17T07:36:27.292Z,90
2016-11-17T07:37:36.204Z,90
2016-11-17T07:38:45.124Z,90
2016-11-17T07:39:54.067Z,95
2016-11-17T07:41:03.649Z,95
2016-11-17T07:42:12.583Z,95
2016-11-17T07:43:21.541Z,100
2016-11-17T07:44:30.152Z,105
2016-11-17T07:45:38.760Z,105
2016-11-17T07:46:47.705Z,110
2016-11-17T07:47:56.987Z,110
2016-11-17T07:49:06.327Z,115
2016-11-17T07:50:14.950Z,115
2016-11-17T07:51:24.205Z,120
2016-11-17T07:52:33.168Z,120
2016-11-17T07:53:41.786Z,120
2016-11-17T07:54:51.025Z,125
2016-11-17T07:55:59.986Z,120
2016-11-17T07:57:09.253Z,125
2016-11-17T07:58:18.184Z,125
2016-11-17T07:59:27.120Z,125
2016-11-17T08:00:36.769Z,130
2016-11-17T08:01:45.719Z,130
2016-11-17T08:02:54.656Z,135
2016-11-17T08:04:03.964Z,140
2016-11-17T08:05:12.903Z,140
2016-11-17T08:06:22.556Z,140
2016-11-17T08:07:31.508Z,145
2016-11-17T08:08:40.798Z,145
2016-11-17T08:09:49.728Z,150
2016-11-17T08:10:58.344Z,150
2016-11-17T08:12:07.956Z,155
2016-11-17T08:13:16.576Z,155
2016-11-17T08:14:25.517Z,160
2016-11-17T08:15:34.168Z,160
2016-11-17T08:16:43.105Z,160
2016-11-17T08:17:52.304Z,160
2016-11-17T08:19:01.580Z,165
2016-11-17T08:20:10.207Z,165
2016-11-17T08:21:19.472Z,165
2016-11-17T08:22:29.057Z,170
2016-11-17T08:23:38.345Z,170
2016-11-17T08:24:47.614Z,175
2016-11-17T08:25:56.876Z,180
2016-11-17T08:27:05.808Z,195
2016-11-17T08:28:14.431Z,210
2016-11-17T08:29:23.719Z,225
2016-11-17T08:30:32.669Z,220
2016-11-17T08:31:42.259Z,210
2016-11-17T08:32:51.224Z,205
2016-11-17T08:33:59.864Z,225
2016-11-17T08:35:08.899Z,240
2016-11-17T08:36:17.519Z,245
2016-11-17T08:37:26.147Z,245
2016-11-17T08:38:35.089Z,235
2016-11-17T08:39:43.714Z,225
2016-11-17T08:40:52.999Z,200
2016-11-17T08:42:01.627Z,175
2016-11-17T08:43:10.257Z,155
2016-11-17T08:44:19.191Z,145
2016-11-17T08:45:28.782Z,130
2016-11-17T08:46:37.790Z,115
2016-11-17T08:47:46.750Z,115
2016-11-17T08:48:55.377Z,140
2016-11-17T08:50:04.317Z,170
2016-11-17T08:51:13.253Z,185
2016-11-17T08:52:22.667Z,195
2016-11-17T08:53:31.941Z,210
2016-11-17T08:54:40.923Z,180
2016-11-17T08:55:50.175Z,145
2016-11-17T08:56:59.125Z,105
2016-11-17T08:58:07.793Z,100
2016-11-17T08:59:16.725Z,125
2016-11-17T09:00:25.690Z,175
2016-11-17T09:01:34.671Z,175
2016-11-17T09:02:43.615Z,175
2016-11-17T09:03:52.687Z,165
2016-11-17T09:05:01.317Z,195
2016-11-17T09:06:10.256Z,235
2016-11-17T09:07:19.525Z,255
2016-11-17T09:08:28.798Z,295
2016-11-17T09:09:37.805Z,345
2016-11-17T09:10:46.776Z,365
2016-11-17T09:11:56.065Z,350
2016-11-17T09:13:04.699Z,325
2016-11-17T09:14:13.627Z,320
2016-11-17T09:15:22.296Z,300
2016-11-17T09:16:30.912Z,275
2016-11-17T09:17:39.861Z,260
2016-11-17T09:18:48.504Z,260
2016-11-17T09:19:57.485Z,255
2016-11-17T09:21:06.166Z,255
2016-11-17T09:22:14.794Z,255
2016-11-17T09:23:23.742Z,255
2016-11-17T09:24:32.687Z,255
2016-11-17T09:25:41.956Z,250
2016-11-17T09:26:51.054Z,250
2016-11-17T09:28:00.324Z,250
2016-11-17T09:29:09.954Z,250
2016-11-17T09:30:18.909Z,250
2016-11-17T09:31:27.531Z,250
2016-11-17T09:32:36.533Z,250
2016-11-17T09:33:45.522Z,250
2016-11-17T09:34:54.137Z,250
2016-11-17T09:36:02.819Z,250
2016-11-17T09:37:12.160Z,250
2016-11-17T09:38:21.193Z,250
2016-11-17T09:39:30.147Z,255
2016-11-17T09:40:38.777Z,255
2016-11-17T09:41:47.400Z,255
2016-11-17T09:42:56.359Z,255
2016-11-17T09:44:06.090Z,255
2016-11-17T09:45:15.093Z,255
2016-11-17T09:46:24.706Z,260
2016-11-17T09:47:33.974Z,260
2016-11-17T09:48:42.591Z,260
2016-11-17T09:49:51.569Z,260
2016-11-17T09:51:00.820Z,260
2016-11-17T09:52:09.746Z,265
2016-11-17T09:53:18.728Z,265
2016-11-17T09:54:28.003Z,265
2016-11-17T09:55:37.143Z,265
2016-11-17T09:56:45.769Z,260
2016-11-17T09:57:55.104Z,265
2016-11-17T09:59:03.711Z,265
2016-11-17T10:00:12.658Z,265
2016-11-17T10:01:21.382Z,265
2016-11-17T10:02:30.004Z,265
2016-11-17T10:03:38.633Z,265
2016-11-17T10:04:47.566Z,265
2016-11-17T10:05:56.851Z,270
2016-11-17T10:07:06.164Z,270
2016-11-17T10:08:15.123Z,270
2016-11-17T10:09:24.395Z,270
2016-11-17T10:10:33.336Z,270
2016-11-17T10:11:43.247Z,270
2016-11-17T10:12:52.354Z,275
2016-11-17T10:14:01.641Z,275
2016-11-17T10:15:10.591Z,275
2016-11-17T10:16:19.529Z,280
2016-11-17T10:17:28.181Z,280
2016-11-17T10:18:36.856Z,295
2016-11-17T10:19:45.802Z,355
2016-11-17T10:20:55.069Z,430
2016-11-17T10:22:04.657Z,345
2016-11-17T10:23:13.613Z,310
2016-11-17T10:24:22.667Z,440
2016-11-17T10:25:31.599Z,375
2016-11-17T10:26:40.547Z,350
2016-11-17T10:27:49.152Z,350
2016-11-17T10:28:57.782Z,375
2016-11-17T10:30:07.102Z,365
2016-11-17T10:31:16.056Z,285
2016-11-17T10:32:24.692Z,230
2016-11-17T10:33:33.640Z,360
2016-11-17T10:34:42.571Z,305
2016-11-17T10:35:51.574Z,305
2016-11-17T10:37:00.823Z,280
2016-11-17T10:38:09.449Z,255
2016-11-17T10:39:18.758Z,265
2016-11-17T10:40:28.354Z,295
2016-11-17T10:41:37.026Z,285
2016-11-17T10:42:46.300Z,305
2016-11-17T10:43:55.235Z,310
2016-11-17T10:45:04.167Z,345
2016-11-17T10:46:12.790Z,400
2016-11-17T10:47:22.108Z,415
2016-11-17T10:48:31.366Z,410
2016-11-17T10:49:39.992Z,400
2016-11-17T10:50:49.257Z,400
2016-11-17T10:51:57.890Z,400
2016-11-17T10:53:07.311Z,410
2016-11-17T10:54:15.950Z,410
2016-11-17T10:55:24.905Z,400
2016-11-17T10:56:33.874Z,400
2016-11-17T10:57:42.823Z,395
2016-11-17T10:58:52.449Z,405
2016-11-17T11:00:01.711Z,420
2016-11-17T11:01:10.991Z,425
2016-11-17T11:02:19.958Z,410
2016-11-17T11:03:28.586Z,415
2016-11-17T11:04:37.586Z,415
2016-11-17T11:05:46.852Z,425
2016-11-17T11:06:55.813Z,430
2016-11-17T11:08:05.081Z,440
2016-11-17T11:09:14.389Z,440
2016-11-17T11:10:23.314Z,435
2016-11-17T11:11:32.266Z,430
2016-11-17T11:12:41.213Z,430
2016-11-17T11:13:50.523Z,435
2016-11-17T11:15:00.144Z,440
2016-11-17T11:16:09.437Z,445
2016-11-17T11:17:18.729Z,445
2016-11-17T11:18:28.339Z,445
2016-11-17T11:19:36.965Z,440
2016-11-17T11:20:45.906Z,435
2016-11-17T11:21:55.655Z,435
2016-11-17T11:23:04.276Z,435
2016-11-17T11:24:12.900Z,430
2016-11-17T11:25:21.841Z,435
2016-11-17T11:26:30.492Z,435
2016-11-17T11:27:39.818Z,435
2016-11-17T11:28:48.791Z,425
2016-11-17T11:29:58.059Z,435
2016-11-17T11:31:07.008Z,440
2016-11-17T11:32:15.959Z,465
2016-11-17T11:33:25.579Z,480
2016-11-17T11:34:34.865Z,460
2016-11-17T11:35:43.796Z,465
2016-11-17T11:36:52.756Z,460
2016-11-17T11:38:01.373Z,475
2016-11-17T11:39:10.985Z,470
2016-11-17T11:40:20.258Z,470
2016-11-17T11:41:29.208Z,470
2016-11-17T11:42:38.160Z,475
2016-11-17T11:43:47.433Z,475
2016-11-17T11:44:56.713Z,485
2016-11-17T11:46:05.668Z,465
2016-11-17T11:47:14.281Z,455
2016-11-17T11:48:23.848Z,440
2016-11-17T11:49:32.811Z,435
2016-11-17T11:50:41.527Z,430
2016-11-17T11:51:50.479Z,435
2016-11-17T11:52:59.746Z,440
2016-11-17T11:54:08.707Z,460
2016-11-17T11:55:17.336Z,450
2016-11-17T11:56:26.943Z,440
2016-11-17T11:57:35.897Z,425
2016-11-17T11:58:45.479Z,410
2016-11-17T11:59:55.348Z,410
2016-11-17T12:01:04.964Z,415
2016-11-17T12:02:13.748Z,410
2016-11-17T12:03:23.019Z,400
2016-11-17T12:04:31.663Z,385
2016-11-17T12:05:40.295Z,375
2016-11-17T12:06:49.249Z,360
2016-11-17T12:07:58.867Z,350
2016-11-17T12:09:07.494Z,330
2016-11-17T12:10:16.431Z,305
2016-11-17T12:11:25.049Z,295
2016-11-17T12:12:34.346Z,290
2016-11-17T12:13:44.283Z,300
2016-11-17T12:14:53.550Z,315
2016-11-17T12:16:02.186Z,320
2016-11-17T12:17:11.131Z,315
2016-11-17T12:18:19.755Z,305
2016-11-17T12:19:29.045Z,315
2016-11-17T12:20:37.999Z,360
2016-11-17T12:21:46.952Z,360
2016-11-17T12:22:55.907Z,350
2016-11-17T12:24:04.545Z,380
2016-11-17T12:25:13.533Z,375
2016-11-17T12:26:22.162Z,335
2016-11-17T12:27:30.775Z,290
2016-11-17T12:28:39.402Z,245
2016-11-17T12:29:48.390Z,200
2016-11-17T12:30:57.679Z,205
2016-11-17T12:32:06.620Z,245
2016-11-17T12:33:15.226Z,275
2016-11-17T12:34:23.850Z,300
2016-11-17T12:35:32.792Z,320
2016-11-17T12:36:42.096Z,320
2016-11-17T12:37:51.365Z,335
2016-11-17T12:39:00.310Z,365
2016-11-17T12:40:09.913Z,385
2016-11-17T12:41:18.855Z,400
2016-11-17T12:42:28.171Z,400
2016-11-17T12:43:37.106Z,365
2016-11-17T12:44:45.728Z,345
2016-11-17T12:45:55.007Z,345
2016-11-17T12:47:03.959Z,405
2016-11-17T12:48:12.680Z,450
2016-11-17T12:49:21.643Z,465
2016-11-17T12:50:30.291Z,450
2016-11-17T12:51:39.894Z,415
2016-11-17T12:52:48.829Z,405
2016-11-17T12:53:57.884Z,425
2016-11-17T12:55:07.160Z,405
2016-11-17T12:56:16.446Z,360
2016-11-17T12:57:25.397Z,335
2016-11-17T12:58:34.661Z,355
2016-11-17T12:59:44.303Z,335
2016-11-17T13:00:53.247Z,300
2016-11-17T13:02:02.523Z,310
2016-11-17T13:03:11.467Z,350
2016-11-17T13:04:20.410Z,340
2016-11-17T13:05:29.735Z,245
2016-11-17T13:06:38.358Z,185
2016-11-17T13:07:46.980Z,220
2016-11-17T13:08:56.241Z,200
2016-11-17T13:10:04.861Z,160
2016-11-17T13:11:13.904Z,155
2016-11-17T13:12:22.845Z,130
2016-11-17T13:13:31.784Z,225
2016-11-17T13:14:40.723Z,280
2016-11-17T13:15:49.344Z,250
2016-11-17T13:16:58.333Z,210
2016-11-17T13:18:07.913Z,170
2016-11-17T13:19:16.862Z,190
2016-11-17T13:20:25.829Z,200
2016-11-17T13:21:34.787Z,200
2016-11-17T13:22:43.786Z,160
2016-11-17T13:23:52.747Z,160
2016-11-17T13:25:01.738Z,135
2016-11-17T13:26:11.347Z,115
2016-11-17T13:27:20.625Z,105
2016-11-17T13:28:29.296Z,130
2016-11-17T13:29:38.237Z,115
2016-11-17T13:30:47.505Z,140
2016-11-17T13:31:56.136Z,160
2016-11-17T13:33:05.071Z,160
2016-11-17T13:34:14.063Z,255
2016-11-17T13:35:22.688Z,235
2016-11-17T13:36:31.356Z,210
2016-11-17T13:37:39.975Z,255
2016-11-17T13:38:48.606Z,330
2016-11-17T13:39:57.748Z,410
2016-11-17T13:41:06.694Z,575
2016-11-17T13:42:15.973Z,675
2016-11-17T13:43:24.586Z,575
2016-11-17T13:44:33.206Z,425
2016-11-17T13:45:42.551Z,330
2016-11-17T13:46:51.508Z,255
2016-11-17T13:48:00.459Z,275
2016-11-17T13:49:09.405Z,280
2016-11-17T13:50:18.676Z,260
2016-11-17T13:51:27.602Z,280
2016-11-17T13:52:37.218Z,270
2016-11-17T13:53:46.165Z,265
2016-11-17T13:54:54.777Z,245
2016-11-17T13:56:03.715Z,255
2016-11-17T13:57:13.386Z,260
2016-11-17T13:58:22.018Z,215
2016-11-17T13:59:31.012Z,205
2016-11-17T14:00:40.016Z,230
2016-11-17T14:01:49.302Z,200
2016-11-17T14:02:58.598Z,170
2016-11-17T14:04:07.548Z,165
2016-11-17T14:05:16.168Z,175
2016-11-17T14:06:25.114Z,170
2016-11-17T14:07:34.065Z,180
2016-11-17T14:08:43.452Z,210
2016-11-17T14:09:52.713Z,245
2016-11-17T14:11:01.982Z,255
2016-11-17T14:12:10.983Z,255
2016-11-17T14:13:19.923Z,255
2016-11-17T14:14:28.952Z,250
2016-11-17T14:15:38.217Z,245
2016-11-17T14:16:47.158Z,215
2016-11-17T14:17:56.106Z,205
2016-11-17T14:19:05.392Z,190
2016-11-17T14:20:14.432Z,185
2016-11-17T14:21:23.378Z,180
2016-11-17T14:22:32.323Z,175
2016-11-17T14:23:41.937Z,180
2016-11-17T14:24:50.873Z,170
2016-11-17T14:26:00.580Z,165
2016-11-17T14:27:09.211Z,165
2016-11-17T14:28:18.499Z,165
2016-11-17T14:29:27.450Z,160
2016-11-17T14:30:36.395Z,155
2016-11-17T14:31:45.480Z,155
2016-11-17T14:32:54.407Z,150
2016-11-17T14:34:03.033Z,140
2016-11-17T14:35:11.986Z,145
2016-11-17T14:36:21.257Z,145
2016-11-17T14:37:30.540Z,140
2016-11-17T14:38:39.151Z,135
2016-11-17T14:39:48.129Z,135
2016-11-17T14:40:56.766Z,135
2016-11-17T14:42:06.049Z,130
2016-11-17T14:43:15.454Z,130
2016-11-17T14:44:25.043Z,125
2016-11-17T14:45:33.662Z,120
2016-11-17T14:46:42.591Z,115
2016-11-17T14:47:51.556Z,115
2016-11-17T14:49:01.324Z,115
2016-11-17T14:50:10.920Z,110
2016-11-17T14:51:19.858Z,105
2016-11-17T14:52:29.439Z,100
2016-11-17T14:53:38.056Z,100
2016-11-17T14:54:47.659Z,95
2016-11-17T14:55:56.913Z,90
2016-11-17T14:57:05.528Z,85
2016-11-17T14:58:14.157Z,85
2016-11-17T14:59:23.760Z,80
2016-11-17T15:00:33.083Z,75
2016-11-17T15:01:42.026Z,75
2016-11-17T15:02:50.671Z,70
2016-11-17T15:03:59.660Z,70
2016-11-17T15:05:09.269Z,65
2016-11-17T15:06:18.240Z,65
2016-11-17T15:07:27.503Z,60
2016-11-17T15:08:36.503Z,60
2016-11-17T15:09:45.143Z,55
2016-11-17T15:10:54.085Z,55
2016-11-17T15:12:02.745Z,50
2016-11-17T15:13:11.376Z,45
2016-11-17T15:14:20.655Z,45
2016-11-17T15:15:29.931Z,40
2016-11-17T15:16:38.881Z,40
2016-11-17T15:17:47.543Z,35
2016-11-17T15:18:56.804Z,35
2016-11-17T15:20:05.732Z,30
2016-11-17T15:21:14.668Z,30
2016-11-17T15:22:24.273Z,30
2016-11-17T15:23:33.571Z,25
2016-11-17T15:24:42.532Z,25
2016-11-17T15:25:51.144Z,20
2016-11-17T15:27:00.076Z,20
2016-11-17T15:28:09.010Z,15
2016-11-17T15:29:18.401Z,15
2016-11-17T15:30:27.668Z,15
2016-11-17T15:31:36.610Z,10
2016-11-17T15:32:45.546Z,10
2016-11-17T15:33:54.820Z,10
2016-11-17T15:35:03.908Z,10
2016-11-17T15:36:12.845Z,5
2016-11-17T15:37:22.105Z,5
2016-11-17T15:38:30.723Z,5
2016-11-17T15:39:39.669Z,5
2016-11-17T15:40:49.551Z,5
2016-11-17T15:41:58.497Z,0
2016-11-17T15:43:07.117Z,0
2016-11-17T15:44:15.747Z,0
2016-11-17T15:45:24.687Z,0
2016-11-17T15:46:33.899Z,0
2016-11-17T15:47:42.518Z,0
2016-11-17T15:48:51.454Z,0
2016-11-17T15:50:00.408Z,0
2016-11-17T15:51:09.667Z,0
2016-11-17T15:52:18.942Z,0
2016-11-17T15:53:27.876Z,0
2016-11-17T15:54:36.859Z,0
2016-11-17T15:55:45.482Z,0
2016-11-17T15:56:54.103Z,0
2016-11-17T15:58:04.042Z,0
2016-11-17T15:59:13.527Z,0
2016-11-17T16:00:22.477Z,0
2016-11-17T16:01:31.086Z,0
2016-11-17T16:02:40.030Z,0
2016-11-17T16:03:49.962Z,0
2016-11-17T16:04:58.906Z,0
2016-11-17T16:06:07.864Z,0
2016-11-17T16:07:17.138Z,0
2016-11-17T16:08:26.072Z,0
2016-11-17T16:09:35.064Z,0
2016-11-17T16:10:44.649Z,0
2016-11-17T16:11:53.263Z,0
2016-11-17T16:13:02.570Z,0
2016-11-17T16:14:12.471Z,0
2016-11-17T16:15:22.189Z,0
2016-11-17T16:16:30.812Z,0
2016-11-17T16:17:39.748Z,0
2016-11-17T16:18:48.679Z,0
2016-11-17T16:19:57.632Z,0
2016-11-17T16:21:07.008Z,0
2016-11-17T16:22:15.961Z,0
2016-11-17T16:23:24.563Z,0
2016-11-17T16:24:33.184Z,0
2016-11-17T16:25:41.818Z,0